Time;durP1;ratioP1;P1;durP2;ratioP2;P2;SDS_P1;SDS_P2;PMS_P1;PMS_P2;Temp;Humidity;BMP_temperature;BMP_pressure;BME280_temperature;BME280_humidity;BME280_pressure;Samples;Min_cycle;Max_cycle;Signal;HPM_P1;HPM_P2
2022/04/18 00:01:50;;;;;;;17.02;10.20;;;;;;;;;;5093824;28;20066;-78
2022/04/18 00:04:18;;;;;;;15.73;9.88;;;;;;;;;;5077156;28;20079;-79
2022/04/18 00:06:44;;;;;;;21.58;10.05;;;;;;;;;;5077065;28;20073;-78
2022/04/18 00:09:09;;;;;;;20.45;10.55;;;;;;;;;;5077512;28;20097;-79
2022/04/18 00:11:36;;;;;;;19.55;10.20;;;;;;;;;;5093829;28;20071;-78
2022/04/18 00:14:01;;;;;;;17.13;9.60;;;;;;;;;;5093924;28;20035;-78
2022/04/18 00:16:28;;;;;;;18.77;10.63;;;;;;;;;;5077368;28;20084;-78
2022/04/18 00:18:54;;;;;;;18.30;10.23;;;;;;;;;;5093975;28;20130;-79
2022/04/18 00:21:20;;;;;;;15.95;11.27;;;;;;;;;;5093655;28;20120;-78
2022/04/18 00:23:46;;;;;;;15.35;10.50;;;;;;;;;;5077153;28;20181;-79
2022/04/18 00:26:12;;;;;;;18.60;10.63;;;;;;;;;;5093728;28;20085;-78
2022/04/18 00:28:38;;;;;;;17.40;10.88;;;;;;;;;;5094143;28;20554;-79
2022/04/18 00:31:04;;;;;;;18.63;10.70;;;;;;;;;;5077069;28;20118;-79
2022/04/18 00:33:30;;;;;;;21.35;10.35;;;;;;;;;;5077362;28;20048;-78
2022/04/18 00:35:56;;;;;;;18.05;10.13;;;;;;;;;;5077292;28;20070;-78
2022/04/18 00:38:23;;;;;;;21.95;11.90;;;;;;;;;;5077299;28;20035;-79
2022/04/18 00:40:49;;;;;;;17.13;10.57;;;;;;;;;;5076893;28;20040;-78
2022/04/18 00:43:15;;;;;;;21.25;10.25;;;;;;;;;;5076944;28;20043;-79
2022/04/18 00:45:41;;;;;;;18.98;9.98;;;;;;;;;;5093633;28;20055;-79
2022/04/18 00:48:07;;;;;;;19.60;10.50;;;;;;;;;;5076940;28;20475;-78
2022/04/18 00:50:34;;;;;;;15.43;10.35;;;;;;;;;;5077139;28;20036;-79
2022/04/18 00:53:00;;;;;;;17.50;10.45;;;;;;;;;;5077101;28;20032;-78
2022/04/18 00:55:28;;;;;;;19.75;11.23;;;;;;;;;;5077327;28;20047;-78
2022/04/18 00:57:55;;;;;;;23.92;10.85;;;;;;;;;;5076864;28;20046;-78
2022/04/18 01:00:21;;;;;;;18.48;10.13;;;;;;;;;;5076813;28;20047;-79
2022/04/18 01:02:48;;;;;;;18.08;9.77;;;;;;;;;;5093424;28;20113;-79
2022/04/18 01:05:14;;;;;;;21.13;10.82;;;;;;;;;;5076629;28;20040;-79
2022/04/18 01:07:40;;;;;;;20.83;11.27;;;;;;;;;;5076385;28;20118;-79
2022/04/18 01:10:06;;;;;;;20.33;11.18;;;;;;;;;;5095347;28;20535;-78
2022/04/18 01:12:32;;;;;;;21.63;10.45;;;;;;;;;;5080491;28;20075;-79
2022/04/18 01:14:58;;;;;;;21.45;11.00;;;;;;;;;;5080659;28;20464;-79
2022/04/18 01:17:25;;;;;;;19.40;11.02;;;;;;;;;;5097041;28;20199;-79
2022/04/18 01:19:51;;;;;;;16.05;10.70;;;;;;;;;;5079985;28;20043;-79
2022/04/18 01:22:18;;;;;;;21.17;11.13;;;;;;;;;;5080260;28;20047;-79
2022/04/18 01:30:15;;;;;;;22.48;11.60;;;;;;;;;;5097267;28;20040;-78
2022/04/18 01:32:42;;;;;;;20.90;11.98;;;;;;;;;;5097129;28;20051;-79
2022/04/18 01:35:09;;;;;;;18.35;10.38;;;;;;;;;;5080273;28;20055;-79
2022/04/18 01:37:36;;;;;;;18.05;11.32;;;;;;;;;;5096696;28;20431;-78
2022/04/18 01:40:03;;;;;;;21.25;11.10;;;;;;;;;;5079890;28;20071;-78
2022/04/18 01:42:29;;;;;;;20.33;11.25;;;;;;;;;;5096613;28;20046;-79
2022/04/18 01:44:55;;;;;;;23.23;11.13;;;;;;;;;;5097075;28;20122;-79
2022/04/18 01:47:21;;;;;;;20.17;11.32;;;;;;;;;;5097704;28;20038;-78
2022/04/18 01:49:47;;;;;;;17.48;10.25;;;;;;;;;;5097300;28;20040;-79
2022/04/18 01:52:14;;;;;;;20.40;11.00;;;;;;;;;;5080094;28;20040;-78
2022/04/18 01:54:39;;;;;;;20.80;11.05;;;;;;;;;;5080116;28;20050;-79
2022/04/18 01:57:05;;;;;;;20.92;11.80;;;;;;;;;;5097047;28;20043;-78
2022/04/18 01:59:31;;;;;;;22.00;10.45;;;;;;;;;;5073744;28;20044;-78
2022/04/18 02:01:57;;;;;;;20.70;10.68;;;;;;;;;;5076778;28;20032;-78
2022/04/18 02:04:23;;;;;;;14.77;9.65;;;;;;;;;;5076542;28;20047;-78
2022/04/18 02:06:49;;;;;;;15.35;9.90;;;;;;;;;;5076521;28;20044;-79
2022/04/18 02:09:15;;;;;;;18.08;11.25;;;;;;;;;;5060088;28;20130;-78
2022/04/18 02:11:41;;;;;;;17.17;10.65;;;;;;;;;;5059930;28;20036;-79
2022/04/18 02:14:07;;;;;;;19.55;10.43;;;;;;;;;;5059583;28;20036;-79
2022/04/18 02:16:33;;;;;;;16.60;9.68;;;;;;;;;;5076578;28;20449;-78
2022/04/18 02:18:59;;;;;;;19.83;10.02;;;;;;;;;;5059680;28;20044;-79
2022/04/18 02:21:25;;;;;;;18.23;9.73;;;;;;;;;;5059447;28;20043;-79
2022/04/18 02:23:51;;;;;;;17.25;8.90;;;;;;;;;;5059244;28;20073;-79
2022/04/18 02:26:17;;;;;;;16.70;10.13;;;;;;;;;;5059697;28;20510;-79
2022/04/18 02:28:43;;;;;;;19.38;9.98;;;;;;;;;;5059320;28;20040;-79
2022/04/18 02:31:09;;;;;;;21.25;10.40;;;;;;;;;;5059015;28;20161;-80
2022/04/18 02:33:35;;;;;;;20.52;10.80;;;;;;;;;;5058877;28;20469;-79
2022/04/18 02:36:02;;;;;;;17.55;9.88;;;;;;;;;;5075578;28;20040;-79
2022/04/18 02:38:28;;;;;;;17.80;10.18;;;;;;;;;;5075806;28;20055;-78
2022/04/18 02:40:54;;;;;;;21.50;10.77;;;;;;;;;;5075679;28;20066;-79
2022/04/18 02:43:20;;;;;;;17.90;10.00;;;;;;;;;;5058661;28;20079;-79
2022/04/18 02:45:46;;;;;;;19.83;11.20;;;;;;;;;;5059255;28;20040;-79
2022/04/18 02:48:12;;;;;;;19.75;11.10;;;;;;;;;;5059148;28;20502;-79
2022/04/18 02:50:38;;;;;;;17.52;9.95;;;;;;;;;;5076204;28;20483;-79
2022/04/18 02:53:07;;;;;;;20.08;10.95;;;;;;;;;;5075360;28;20112;-79
2022/04/18 02:55:33;;;;;;;16.75;9.93;;;;;;;;;;5059019;28;20127;-79
2022/04/18 02:57:59;;;;;;;19.67;10.85;;;;;;;;;;5075767;28;20709;-79
2022/04/18 03:00:25;;;;;;;19.55;11.05;;;;;;;;;;5059342;28;20097;-79
2022/04/18 03:02:51;;;;;;;17.10;10.60;;;;;;;;;;5058831;28;20453;-79
2022/04/18 03:05:17;;;;;;;19.88;11.95;;;;;;;;;;5075259;28;20061;-79
2022/04/18 03:07:43;;;;;;;18.80;11.15;;;;;;;;;;5075454;28;20040;-79
2022/04/18 03:10:10;;;;;;;24.42;11.45;;;;;;;;;;5075255;28;20131;-79
2022/04/18 03:12:36;;;;;;;20.60;10.82;;;;;;;;;;5058379;28;20040;-79
2022/04/18 03:15:02;;;;;;;19.17;9.55;;;;;;;;;;5058233;28;20050;-79
2022/04/18 03:17:27;;;;;;;22.83;12.25;;;;;;;;;;5074763;28;20040;-79
2022/04/18 03:19:53;;;;;;;19.75;10.32;;;;;;;;;;5058009;28;20188;-79
2022/04/18 03:22:20;;;;;;;19.88;9.88;;;;;;;;;;5057889;28;20307;-79
2022/04/18 03:24:46;;;;;;;19.17;10.57;;;;;;;;;;5057849;28;20047;-79
2022/04/18 03:27:12;;;;;;;20.58;10.48;;;;;;;;;;5074409;28;20042;-79
2022/04/18 03:29:38;;;;;;;19.65;10.45;;;;;;;;;;5074522;28;20044;-79
2022/04/18 03:32:04;;;;;;;18.48;9.52;;;;;;;;;;5073875;28;20376;-79
2022/04/18 03:34:30;;;;;;;23.50;10.98;;;;;;;;;;5074497;28;20051;-79
2022/04/18 03:39:51;;;;;;;16.90;11.00;;;;;;;;;;5074408;28;20560;-79
2022/04/18 03:42:17;;;;;;;19.73;10.57;;;;;;;;;;5057298;28;20458;-79
2022/04/18 03:44:44;;;;;;;20.90;10.85;;;;;;;;;;5074186;28;20082;-79
2022/04/18 03:47:11;;;;;;;18.45;10.07;;;;;;;;;;5074426;28;20042;-79
2022/04/18 03:49:37;;;;;;;20.13;10.25;;;;;;;;;;5057398;28;20053;-78
2022/04/18 03:52:03;;;;;;;18.15;9.82;;;;;;;;;;5073929;28;20052;-79
2022/04/18 03:54:29;;;;;;;17.70;10.48;;;;;;;;;;5057246;28;20048;-79
2022/04/18 03:56:55;;;;;;;19.70;10.40;;;;;;;;;;5073874;28;20063;-79
2022/04/18 03:59:21;;;;;;;18.83;10.25;;;;;;;;;;5073932;28;20043;-79
2022/04/18 04:01:47;;;;;;;17.05;10.20;;;;;;;;;;5057278;28;20044;-79
2022/04/18 04:04:13;;;;;;;17.60;9.90;;;;;;;;;;5057022;28;20071;-79
2022/04/18 04:06:39;;;;;;;17.60;9.55;;;;;;;;;;5057285;28;20193;-79
2022/04/18 04:09:05;;;;;;;19.38;9.23;;;;;;;;;;5056923;28;20040;-79
2022/04/18 04:11:31;;;;;;;15.13;9.10;;;;;;;;;;5057228;28;20040;-79
2022/04/18 04:13:57;;;;;;;19.73;9.50;;;;;;;;;;5057190;28;20051;-79
2022/04/18 04:16:23;;;;;;;20.35;10.00;;;;;;;;;;5073977;28;20079;-79
2022/04/18 04:18:49;;;;;;;19.13;11.15;;;;;;;;;;5057235;28;20036;-79
2022/04/18 04:21:16;;;;;;;18.50;9.82;;;;;;;;;;5056707;28;20468;-79
2022/04/18 04:23:42;;;;;;;15.88;9.50;;;;;;;;;;5056647;28;20044;-79
2022/04/18 04:26:08;;;;;;;17.75;9.32;;;;;;;;;;5056690;28;20036;-79
2022/04/18 04:28:34;;;;;;;18.02;10.57;;;;;;;;;;5075119;28;20376;-79
2022/04/18 04:31:03;;;;;;;20.63;10.20;;;;;;;;;;5056837;28;20032;-79
2022/04/18 04:33:30;;;;;;;17.63;9.68;;;;;;;;;;5056940;28;20056;-79
2022/04/18 04:35:57;;;;;;;18.88;9.63;;;;;;;;;;5057413;28;20051;-79
2022/04/18 04:38:23;;;;;;;16.10;9.00;;;;;;;;;;5073331;28;20048;-78
2022/04/18 04:40:49;;;;;;;15.18;9.40;;;;;;;;;;5056835;28;20373;-79
2022/04/18 04:43:15;;;;;;;17.08;9.85;;;;;;;;;;5056613;28;20059;-79
2022/04/18 04:45:41;;;;;;;16.02;9.82;;;;;;;;;;5077411;28;20528;-79
2022/04/18 04:48:07;;;;;;;17.70;10.43;;;;;;;;;;5077905;28;20504;-79
2022/04/18 04:50:33;;;;;;;17.95;9.93;;;;;;;;;;5077380;28;20412;-79
2022/04/18 04:53:00;;;;;;;14.73;10.00;;;;;;;;;;5060610;28;20480;-79
2022/04/18 04:55:27;;;;;;;18.58;9.57;;;;;;;;;;5077093;28;20052;-79
2022/04/18 04:57:53;;;;;;;16.00;10.00;;;;;;;;;;5060659;28;20031;-79
2022/04/18 05:00:19;;;;;;;14.00;7.93;;;;;;;;;;5077587;28;20040;-79
2022/04/18 05:02:45;;;;;;;16.98;9.95;;;;;;;;;;5060824;28;20040;-79
2022/04/18 05:05:12;;;;;;;15.40;8.73;;;;;;;;;;5060796;28;20096;-79
2022/04/18 05:07:38;;;;;;;12.55;8.30;;;;;;;;;;5060414;28;20479;-79
2022/04/18 05:10:04;;;;;;;16.55;8.68;;;;;;;;;;5060075;28;20038;-79
2022/04/18 05:12:31;;;;;;;15.23;8.85;;;;;;;;;;5060434;28;20131;-79
2022/04/18 05:15:06;;;;;;;14.07;7.78;;;;;;;;;;5076699;28;20048;-79
2022/04/18 05:17:32;;;;;;;13.98;8.90;;;;;;;;;;5077145;28;20040;-79
2022/04/18 05:19:58;;;;;;;13.05;8.18;;;;;;;;;;5077671;28;20052;-79
2022/04/18 05:22:24;;;;;;;15.02;8.02;;;;;;;;;;5062779;28;20043;-80
2022/04/18 05:24:51;;;;;;;16.75;9.32;;;;;;;;;;5056055;28;20043;-79
2022/04/18 05:27:17;;;;;;;17.35;9.73;;;;;;;;;;5057026;28;20036;-79
2022/04/18 05:29:44;;;;;;;14.75;9.48;;;;;;;;;;5056446;28;20039;-79
2022/04/18 05:32:10;;;;;;;18.58;10.98;;;;;;;;;;5056474;28;20433;-79
2022/04/18 05:34:36;;;;;;;18.98;9.95;;;;;;;;;;5062197;28;20051;-79
2022/04/18 05:37:02;;;;;;;16.58;9.45;;;;;;;;;;5084345;28;20036;-79
2022/04/18 05:39:28;;;;;;;15.95;9.68;;;;;;;;;;5066851;28;20383;-79
2022/04/18 05:41:56;;;;;;;15.38;8.35;;;;;;;;;;5066919;28;20046;-79
2022/04/18 05:44:22;;;;;;;16.30;8.85;;;;;;;;;;5067732;28;20124;-79
2022/04/18 05:46:48;;;;;;;14.38;9.02;;;;;;;;;;5068835;28;20809;-79
2022/04/18 05:49:14;;;;;;;15.15;9.90;;;;;;;;;;5070185;28;20067;-79
2022/04/18 05:51:40;;;;;;;14.52;9.43;;;;;;;;;;5069223;28;20123;-79
2022/04/18 05:54:06;;;;;;;18.80;10.13;;;;;;;;;;5068426;28;20040;-79
2022/04/18 05:56:32;;;;;;;20.75;9.95;;;;;;;;;;5068534;28;20116;-79
2022/04/18 05:58:58;;;;;;;16.13;10.38;;;;;;;;;;5069100;28;20036;-80
2022/04/18 06:01:24;;;;;;;15.15;10.02;;;;;;;;;;5068304;28;20040;-80
2022/04/18 06:03:50;;;;;;;15.82;10.35;;;;;;;;;;5069332;28;20059;-80
2022/04/18 06:06:16;;;;;;;16.50;9.60;;;;;;;;;;5086643;28;20043;-79
2022/04/18 06:08:42;;;;;;;17.55;9.88;;;;;;;;;;5069435;28;20051;-80
2022/04/18 06:11:08;;;;;;;17.95;9.18;;;;;;;;;;5085339;28;20799;-79
2022/04/18 06:13:34;;;;;;;13.73;9.57;;;;;;;;;;5070979;28;20126;-79
2022/04/18 06:16:00;;;;;;;16.30;9.60;;;;;;;;;;5065787;28;20051;-79
2022/04/18 06:18:27;;;;;;;15.63;9.15;;;;;;;;;;5069402;28;20044;-78
2022/04/18 06:20:53;;;;;;;19.00;9.00;;;;;;;;;;5072048;28;20043;-80
2022/04/18 06:23:19;;;;;;;14.68;8.98;;;;;;;;;;5066420;28;20040;-79
2022/04/18 06:25:45;;;;;;;16.20;8.75;;;;;;;;;;5085011;28;20707;-78
2022/04/18 06:28:15;;;;;;;13.30;8.25;;;;;;;;;;5068922;28;20043;-79
2022/04/18 06:30:41;;;;;;;14.75;9.05;;;;;;;;;;5067051;28;20090;-79
2022/04/18 06:33:11;;;;;;;15.07;8.70;;;;;;;;;;5068911;28;20399;-79
2022/04/18 06:35:37;;;;;;;14.57;8.88;;;;;;;;;;5084365;28;20040;-79
2022/04/18 06:38:03;;;;;;;13.43;8.15;;;;;;;;;;5085978;28;20419;-80
2022/04/18 06:40:29;;;;;;;15.07;8.55;;;;;;;;;;5085363;28;20236;-79
2022/04/18 06:42:55;;;;;;;12.73;7.55;;;;;;;;;;5067142;28;20594;-81
2022/04/18 06:45:21;;;;;;;13.00;7.85;;;;;;;;;;5068264;28;20134;-78
2022/04/18 06:47:47;;;;;;;16.67;8.18;;;;;;;;;;5068939;28;20472;-81
2022/04/18 06:50:13;;;;;;;10.95;8.15;;;;;;;;;;5084234;28;20106;-79
2022/04/18 06:52:39;;;;;;;12.07;8.40;;;;;;;;;;5087444;28;20042;-78
2022/04/18 06:55:06;;;;;;;12.32;8.23;;;;;;;;;;5085438;28;20662;-79
2022/04/18 06:57:32;;;;;;;9.40;6.80;;;;;;;;;;5068648;28;20035;-78
2022/04/18 06:59:58;;;;;;;12.52;7.90;;;;;;;;;;5084679;28;20050;-78
2022/04/18 07:02:24;;;;;;;13.35;8.07;;;;;;;;;;5068315;28;20066;-78
2022/04/18 07:04:50;;;;;;;10.70;7.72;;;;;;;;;;5068594;28;20035;-79
2022/04/18 07:07:16;;;;;;;11.30;7.60;;;;;;;;;;5083457;28;20395;-80
2022/04/18 07:09:42;;;;;;;13.57;8.02;;;;;;;;;;5085361;28;20356;-79
2022/04/18 07:12:09;;;;;;;11.52;8.82;;;;;;;;;;5068258;28;20064;-79
2022/04/18 07:14:38;;;;;;;12.95;10.52;;;;;;;;;;5083572;28;20105;-80
2022/04/18 07:17:07;;;;;;;12.10;7.60;;;;;;;;;;5085316;28;20087;-79
2022/04/18 07:19:34;;;;;;;11.38;10.07;;;;;;;;;;5070342;28;20067;-80
2022/04/18 07:22:02;;;;;;;12.55;10.32;;;;;;;;;;5069183;28;20031;-80
2022/04/18 07:24:28;;;;;;;11.35;10.05;;;;;;;;;;5069519;28;20488;-79
2022/04/18 07:26:54;;;;;;;12.40;9.85;;;;;;;;;;5069680;28;20407;-80
2022/04/18 07:29:20;;;;;;;13.57;10.30;;;;;;;;;;5083503;28;20032;-80
2022/04/18 07:31:46;;;;;;;13.40;10.43;;;;;;;;;;5095584;28;20260;-79
2022/04/18 07:34:12;;;;;;;13.18;10.95;;;;;;;;;;5095678;28;20044;-79
2022/04/18 07:36:38;;;;;;;12.00;10.55;;;;;;;;;;5078124;28;20100;-83
2022/04/18 07:39:04;;;;;;;10.85;9.70;;;;;;;;;;5097030;28;20047;-82
2022/04/18 07:41:30;;;;;;;10.32;9.05;;;;;;;;;;5078623;28;20097;-79
2022/04/18 07:43:57;;;;;;;11.55;9.73;;;;;;;;;;5078913;28;20063;-79
2022/04/18 07:46:23;;;;;;;12.70;9.98;;;;;;;;;;5056315;28;20040;-80
2022/04/18 07:48:52;;;;;;;13.52;9.88;;;;;;;;;;5055312;28;20071;-80
2022/04/18 07:54:05;;;;;;;11.23;9.70;;;;;;;;;;5073392;28;20049;-78
2022/04/18 07:56:31;;;;;;;10.15;9.02;;;;;;;;;;5072078;28;20067;-79
2022/04/18 07:58:57;;;;;;;11.85;10.38;;;;;;;;;;5071547;28;20147;-80
2022/04/18 08:01:23;;;;;;;10.55;9.35;;;;;;;;;;5074170;28;20075;-78
2022/04/18 08:03:49;;;;;;;11.30;9.50;;;;;;;;;;5073781;28;20044;-79
2022/04/18 08:06:19;;;;;;;11.27;9.27;;;;;;;;;;5056695;28;20408;-79
2022/04/18 08:08:45;;;;;;;10.23;8.38;;;;;;;;;;5073251;28;20075;-78
2022/04/18 08:11:15;;;;;;;12.15;9.82;;;;;;;;;;5054763;28;20071;-80
2022/04/18 08:13:41;;;;;;;;;;;;;;;;;;5055861;28;20094;-78
2022/04/18 08:16:08;;;;;;;16.75;9.35;;;;;;;;;;5057020;28;20323;-80
2022/04/18 08:18:38;;;;;;;30.40;10.05;;;;;;;;;;5057446;28;20047;-80
2022/04/18 08:21:04;;;;;;;25.40;9.50;;;;;;;;;;5062467;28;20381;-81
2022/04/18 08:23:31;;;;;;;10.35;9.13;;;;;;;;;;5061907;28;20052;-81
2022/04/18 08:25:57;;;;;;;14.63;8.55;;;;;;;;;;5062177;28;20039;-79
2022/04/18 08:28:23;;;;;;;14.65;9.30;;;;;;;;;;5045857;28;20045;-80
2022/04/18 08:30:49;;;;;;;15.95;9.15;;;;;;;;;;5043342;28;20119;-78
2022/04/18 08:33:15;;;;;;;11.48;8.20;;;;;;;;;;5041709;28;20041;-80
2022/04/18 08:35:41;;;;;;;16.40;8.63;;;;;;;;;;5041306;28;20075;-79
2022/04/18 08:38:07;;;;;;;12.43;9.25;;;;;;;;;;5042531;28;20047;-80
2022/04/18 08:40:34;;;;;;;12.63;8.13;;;;;;;;;;5061459;28;20102;-78
2022/04/18 08:43:00;;;;;;;12.88;8.73;;;;;;;;;;5045534;28;20057;-80
2022/04/18 08:45:27;;;;;;;11.13;8.40;;;;;;;;;;5059191;28;20056;-78
2022/04/18 08:53:28;;;;;;;11.10;7.80;;;;;;;;;;5042520;28;20041;-80
2022/04/18 08:55:54;;;;;;;9.73;8.23;;;;;;;;;;5045377;28;20040;-80
2022/04/18 08:58:24;;;;;;;9.10;8.20;;;;;;;;;;5041548;28;20080;-80
2022/04/18 09:00:50;;;;;;;9.32;8.00;;;;;;;;;;5044012;28;20045;-80
2022/04/18 09:03:16;;;;;;;14.70;8.70;;;;;;;;;;5059042;28;20052;-79
2022/04/18 09:05:42;;;;;;;10.77;7.95;;;;;;;;;;5057489;28;20036;-78
2022/04/18 09:08:09;;;;;;;11.35;8.23;;;;;;;;;;5057730;28;20088;-80
2022/04/18 09:10:36;;;;;;;8.70;7.68;;;;;;;;;;5041758;28;20037;-81
2022/04/18 09:13:04;;;;;;;9.40;8.02;;;;;;;;;;5041452;28;20060;-79
2022/04/18 09:15:31;;;;;;;8.70;7.80;;;;;;;;;;5060422;28;20045;-82
2022/04/18 09:18:06;;;;;;;9.23;8.20;;;;;;;;;;5058638;28;20153;-79
2022/04/18 09:20:40;;;;;;;9.55;8.57;;;;;;;;;;5057060;28;20128;-78
2022/04/18 09:23:06;;;;;;;9.70;8.05;;;;;;;;;;5057798;28;20477;-79
2022/04/18 09:25:38;;;;;;;11.55;8.10;;;;;;;;;;5056996;28;20376;-81
2022/04/18 09:28:04;;;;;;;9.38;8.38;;;;;;;;;;5056118;28;20048;-79
2022/04/18 09:30:33;;;;;;;8.65;7.68;;;;;;;;;;5054403;28;20048;-79
2022/04/18 09:33:04;;;;;;;9.93;7.97;;;;;;;;;;5038798;28;20481;-79
2022/04/18 09:35:30;;;;;;;10.82;8.73;;;;;;;;;;5041500;28;20041;-79
2022/04/18 09:38:00;;;;;;;10.32;8.10;;;;;;;;;;5055844;28;20068;-79
2022/04/18 09:40:26;;;;;;;8.35;5.82;;;;;;;;;;5053799;28;20091;-81
2022/04/18 09:42:53;;;;;;;8.40;7.55;;;;;;;;;;5053132;28;20049;-78
2022/04/18 09:45:20;;;;;;;8.80;7.90;;;;;;;;;;5056072;28;20049;-78
2022/04/18 09:47:53;;;;;;;10.13;5.68;;;;;;;;;;5055696;28;20060;-79
2022/04/18 09:53:05;;;;;;;10.05;5.63;;;;;;;;;;5078554;28;20048;-79
2022/04/18 09:55:31;;;;;;;8.70;5.78;;;;;;;;;;5059425;28;20048;-78
2022/04/18 09:58:03;;;;;;;8.73;5.28;;;;;;;;;;5074263;28;20036;-79
2022/04/18 10:00:29;;;;;;;8.77;6.03;;;;;;;;;;5075919;28;20213;-81
2022/04/18 10:02:57;;;;;;;8.90;5.95;;;;;;;;;;5074251;28;20055;-78
2022/04/18 10:05:24;;;;;;;9.60;5.68;;;;;;;;;;5078332;28;20519;-78
2022/04/18 10:07:50;;;;;;;8.85;5.68;;;;;;;;;;5076825;28;20496;-80
2022/04/18 10:10:17;;;;;;;8.30;6.13;;;;;;;;;;5073786;28;20039;-79
2022/04/18 10:12:43;;;;;;;7.63;6.35;;;;;;;;;;5059433;28;20148;-78
2022/04/18 10:15:09;;;;;;;7.47;5.43;;;;;;;;;;5056993;28;20072;-79
2022/04/18 10:17:37;;;;;;;10.13;5.50;;;;;;;;;;5073927;28;20052;-79
2022/04/18 10:20:10;;;;;;;8.40;5.72;;;;;;;;;;5058728;28;20052;-79
2022/04/18 10:22:54;;;;;;;9.30;7.80;;;;;;;;;;5056684;28;20405;-81
2022/04/18 10:25:21;;;;;;;8.40;5.80;;;;;;;;;;5074536;28;20076;-79
2022/04/18 10:27:47;;;;;;;8.02;5.10;;;;;;;;;;5053960;28;20488;-79
2022/04/18 10:30:14;;;;;;;6.88;5.07;;;;;;;;;;5077008;28;20037;-79
2022/04/18 10:32:40;;;;;;;10.38;5.28;;;;;;;;;;5073909;28;20352;-79
2022/04/18 10:35:07;;;;;;;9.50;5.60;;;;;;;;;;5032118;28;20056;-79
2022/04/18 10:37:33;;;;;;;7.63;5.53;;;;;;;;;;5032459;28;20044;-79
2022/04/18 10:40:06;;;;;;;9.02;5.45;;;;;;;;;;5055847;28;20049;-78
2022/04/18 10:42:32;;;;;;;6.65;4.68;;;;;;;;;;5052342;28;20401;-80
2022/04/18 10:45:14;;;;;;;5.97;4.05;;;;;;;;;;5057109;28;20052;-79
2022/04/18 10:47:56;;;;;;;7.78;5.13;;;;;;;;;;5076853;28;20051;-78
2022/04/18 10:50:22;;;;;;;7.32;5.28;;;;;;;;;;5075875;28;20071;-79
2022/04/18 10:53:10;;;;;;;7.22;6.30;;;;;;;;;;5078565;28;20388;-80
2022/04/18 10:55:37;;;;;;;4.18;3.53;;;;;;;;;;5062420;28;20510;-79
2022/04/18 10:58:17;;;;;;;6.75;4.88;;;;;;;;;;5075209;28;20044;-80
2022/04/18 11:00:47;;;;;;;7.25;4.85;;;;;;;;;;5064553;28;20044;-79
2022/04/18 11:03:13;;;;;;;7.07;4.60;;;;;;;;;;5059596;28;20042;-77
2022/04/18 11:05:39;;;;;;;7.47;5.20;;;;;;;;;;5061755;28;20040;-79
2022/04/18 11:08:23;;;;;;;5.97;4.70;;;;;;;;;;5078475;28;20396;-78
2022/04/18 11:10:49;;;;;;;8.30;4.88;;;;;;;;;;5075620;28;20051;-78
2022/04/18 11:13:15;;;;;;;6.78;4.65;;;;;;;;;;5060976;28;20392;-78
2022/04/18 11:15:41;;;;;;;7.03;4.72;;;;;;;;;;5059482;28;20040;-78
2022/04/18 11:18:10;;;;;;;6.80;4.72;;;;;;;;;;5058339;28;20461;-80
2022/04/18 11:20:36;;;;;;;9.23;4.32;;;;;;;;;;5062099;28;20453;-79
2022/04/18 11:23:18;;;;;;;5.18;3.88;;;;;;;;;;5061646;28;20039;-79
2022/04/18 11:25:50;;;;;;;6.55;4.45;;;;;;;;;;5059948;28;20065;-78
2022/04/18 11:28:17;;;;;;;7.07;4.90;;;;;;;;;;5059085;28;20066;-79
2022/04/18 11:30:42;;;;;;;7.70;6.72;;;;;;;;;;5074006;28;20417;-78
2022/04/18 11:33:08;;;;;;;5.90;4.70;;;;;;;;;;5058313;28;20135;-79
2022/04/18 11:35:35;;;;;;;6.43;4.63;;;;;;;;;;5059263;28;20039;-79
2022/04/18 11:38:07;;;;;;;7.93;4.93;;;;;;;;;;5074754;28;20054;-79
2022/04/18 11:40:36;;;;;;;6.25;5.65;;;;;;;;;;5076163;28;20081;-79
2022/04/18 11:43:02;;;;;;;7.50;5.00;;;;;;;;;;5088582;28;20104;-79
2022/04/18 11:45:29;;;;;;;6.90;4.55;;;;;;;;;;5076503;28;20086;-79
2022/04/18 11:47:55;;;;;;;7.47;4.63;;;;;;;;;;5077807;28;20093;-78
2022/04/18 11:50:24;;;;;;;5.78;4.90;;;;;;;;;;5080998;28;20112;-79
2022/04/18 11:53:00;;;;;;;6.57;4.72;;;;;;;;;;5079564;28;20047;-78
2022/04/18 11:55:26;;;;;;;7.13;4.78;;;;;;;;;;5092057;28;20050;-81
2022/04/18 11:57:52;;;;;;;6.45;4.70;;;;;;;;;;5068472;28;20644;-79
2022/04/18 12:08:39;;;;;;;7.55;5.03;;;;;;;;;;5051700;28;20048;-80
2022/04/18 12:11:05;;;;;;;6.28;4.65;;;;;;;;;;5080529;28;20076;-80
2022/04/18 12:13:31;;;;;;;6.63;4.88;;;;;;;;;;5079209;28;20039;-79
2022/04/18 12:16:00;;;;;;;6.32;5.10;;;;;;;;;;5078976;28;20040;-80
2022/04/18 12:18:26;;;;;;;4.85;3.67;;;;;;;;;;5087704;28;20404;-77
2022/04/18 12:20:52;;;;;;;7.97;5.00;;;;;;;;;;5096900;28;20051;-80
2022/04/18 12:23:20;;;;;;;6.72;4.38;;;;;;;;;;5247336;22;20044;-77
2022/04/18 12:25:47;;;;;;;6.72;4.63;;;;;;;;;;5727548;23;20104;-77
2022/04/18 12:28:14;;;;;;;5.85;5.30;;;;;;;;;;5058771;28;20493;-78
2022/04/18 12:30:40;;;;;;;5.95;4.15;;;;;;;;;;5077808;28;20051;-77
2022/04/18 12:33:16;;;;;;;5.97;5.03;;;;;;;;;;5067710;28;20041;-79
2022/04/18 12:35:43;;;;;;;5.75;4.20;;;;;;;;;;5079326;28;20048;-79
2022/04/18 12:38:11;;;;;;;4.88;3.83;;;;;;;;;;5094689;28;20091;-79
2022/04/18 12:40:44;;;;;;;7.30;4.07;;;;;;;;;;5106750;23;20045;-78
2022/04/18 12:43:15;;;;;;;7.78;4.53;;;;;;;;;;5294104;23;20477;-79
2022/04/18 12:45:48;;;;;;;5.93;4.47;;;;;;;;;;5113048;28;20075;-76
2022/04/18 12:48:15;;;;;;;5.32;3.92;;;;;;;;;;5090337;28;20024;-79
2022/04/18 12:50:41;;;;;;;6.18;4.57;;;;;;;;;;5098847;28;20436;-79
2022/04/18 12:53:08;;;;;;;5.15;3.88;;;;;;;;;;5105979;28;20126;-77
2022/04/18 12:58:19;;;;;;;7.55;4.72;;;;;;;;;;5130921;22;20079;-79
2022/04/18 13:00:47;;;;;;;7.93;5.25;;;;;;;;;;5018678;28;20091;-78
2022/04/18 13:03:14;;;;;;;8.40;4.40;;;;;;;;;;5071743;23;20056;-81
2022/04/18 13:05:47;;;;;;;6.45;4.28;;;;;;;;;;5051759;28;20442;-80
2022/04/18 13:08:14;;;;;;;7.32;4.30;;;;;;;;;;5061955;28;20067;-80
2022/04/18 13:10:40;;;;;;;6.07;4.40;;;;;;;;;;5064424;28;20130;-80
2022/04/18 13:13:06;;;;;;;5.18;4.00;;;;;;;;;;5073564;28;20032;-79
2022/04/18 13:15:32;;;;;;;7.82;4.50;;;;;;;;;;5051701;28;20532;-80
2022/04/18 13:17:59;;;;;;;6.03;5.03;;;;;;;;;;5121842;23;20114;-79
2022/04/18 13:20:26;;;;;;;5.25;4.25;;;;;;;;;;5068735;28;20032;-79
2022/04/18 13:22:51;;;;;;;8.43;4.72;;;;;;;;;;5053081;28;20044;-81
2022/04/18 13:25:18;;;;;;;5.78;4.13;;;;;;;;;;5047290;28;20058;-80
2022/04/18 13:27:46;;;;;;;8.10;5.43;;;;;;;;;;5081149;23;20036;-78
2022/04/18 13:30:15;;;;;;;4.88;3.85;;;;;;;;;;5486177;22;20024;-79
2022/04/18 13:32:41;;;;;;;5.75;5.25;;;;;;;;;;5026163;28;20045;-79
2022/04/18 13:35:07;;;;;;;5.13;3.97;;;;;;;;;;5014293;28;21033;-77
2022/04/18 13:37:41;;;;;;;5.80;4.40;;;;;;;;;;5027033;28;20049;-78
2022/04/18 13:40:07;;;;;;;4.47;3.50;;;;;;;;;;5014232;28;20040;-79
2022/04/18 13:42:33;;;;;;;5.95;5.22;;;;;;;;;;5012532;28;20038;-76
2022/04/18 13:44:59;;;;;;;6.63;6.00;;;;;;;;;;5312096;22;20023;-79
2022/04/18 13:47:26;;;;;;;6.32;4.00;;;;;;;;;;5105224;23;20056;-79
2022/04/18 13:49:55;;;;;;;4.97;4.30;;;;;;;;;;5088626;28;20053;-78
2022/04/18 13:52:21;;;;;;;4.38;3.65;;;;;;;;;;5744814;22;20060;-79
2022/04/18 13:54:47;;;;;;;6.82;4.53;;;;;;;;;;5653941;22;20064;-80
2022/04/18 13:57:13;;;;;;;6.95;4.00;;;;;;;;;;5042951;28;20078;-77
2022/04/18 13:59:39;;;;;;;6.13;4.25;;;;;;;;;;5186286;22;20020;-78
2022/04/18 14:02:05;;;;;;;6.05;5.43;;;;;;;;;;5051588;28;20064;-81
2022/04/18 14:04:31;;;;;;;5.10;3.78;;;;;;;;;;5039328;28;20048;-80
2022/04/18 14:07:04;;;;;;;4.75;4.25;;;;;;;;;;5204299;23;20073;-80
2022/04/18 14:20:20;;;;;;;5.05;3.78;;;;;;;;;;5544682;23;20082;-80
2022/04/18 14:22:46;;;;;;;5.10;3.80;;;;;;;;;;5194770;23;20036;-79
2022/04/18 14:25:12;;;;;;;6.53;4.13;;;;;;;;;;5045350;28;20049;-79
2022/04/18 14:27:39;;;;;;;6.40;5.80;;;;;;;;;;5491974;22;20020;-79
2022/04/18 14:30:05;;;;;;;5.22;3.83;;;;;;;;;;5025505;28;20053;-78
2022/04/18 14:32:31;;;;;;;5.00;3.75;;;;;;;;;;5031461;28;20064;-78
2022/04/18 14:34:57;;;;;;;5.78;4.32;;;;;;;;;;5184443;23;20143;-79
2022/04/18 14:37:24;;;;;;;4.55;3.53;;;;;;;;;;5213943;23;20053;-77
2022/04/18 14:39:54;;;;;;;4.32;3.50;;;;;;;;;;5146613;23;20037;-78
2022/04/18 14:42:26;;;;;;;5.30;3.70;;;;;;;;;;4940085;22;20057;31
2022/04/18 14:44:53;;;;;;;4.47;3.95;;;;;;;;;;5345041;23;20020;-78
2022/04/18 14:47:19;;;;;;;5.90;4.28;;;;;;;;;;5795214;23;20052;-77
2022/04/18 14:49:45;;;;;;;6.32;4.55;;;;;;;;;;5546481;23;20061;-77
2022/04/18 14:54:55;;;;;;;7.43;4.00;;;;;;;;;;5517825;22;20144;-79
2022/04/18 15:00:10;;;;;;;5.68;5.10;;;;;;;;;;5380500;22;20060;-78
2022/04/18 15:02:39;;;;;;;4.83;4.17;;;;;;;;;;5694059;23;20028;31
2022/04/18 15:07:54;;;;;;;5.53;4.85;;;;;;;;;;5877529;22;20820;-77
2022/04/18 15:13:03;;;;;;;5.18;4.03;;;;;;;;;;5400108;22;20056;-79
2022/04/18 15:15:55;;;;;;;5.95;5.28;;;;;;;;;;5187907;22;20984;31
2022/04/18 15:21:04;;;;;;;5.30;3.80;;;;;;;;;;4968988;28;20184;-81
2022/04/18 15:23:30;;;;;;;5.22;3.88;;;;;;;;;;4985039;28;20051;-78
2022/04/18 15:28:39;;;;;;;5.63;4.07;;;;;;;;;;5343165;23;20049;-79